If you wish to contribute or participate in the discussions about articles you are invited to join SKYbrary as a registered user

 Actions

Soekarno–Hatta International Airport

From SKYbrary Wiki

WIII /
Revision as of 00:34, 1 March 2010 by Timo.Kouwenhoven (talk | contribs) (Created page with '{{Airport |Airport_Name=Soekarno–Hatta International Airport |ICAO_Territory=WI |ICAO_Region=APAC |Location=Tangerang, Indonesia |Coordinates=6° 7′ 32″ S, 106° 39′ 21…')
(diff) ← Older revision | Latest revision (diff) | Newer revision → (diff)
Airport
ICAO: WIII
Summary
Name Soekarno–Hatta International Airport
Region Asia and Pacific
Territory Indonesia ID.gif
Location Tangerang, Indonesia
Serving
Coordinates 6° 7' 32.00" S, 106° 39' 21.00" E
Runways
Designator Length Width Surface ROPS
07L/25R 3600 m11,811.024 ft
60 m196.85 ft
CON yes/yes
07R/25L 3660 m12,007.874 ft
60 m196.85 ft
CON yes/yes


METAR
Observation WIII 271830Z 36004KT 3000 BR SCT021 25/23 Q1010 NOSIG
Station Jakarta / Soekarno-Hatta
Date/Time 27 October 2020 18:30:00
Wind direction 360°
Wind speed 04 kts
Lowest cloud amount scattered clouds
Temperature 25°C
Dew point 23°C
Humidity 88%
QNH 1010 hPa
Weather condition n/a